Data for 10/29/2009

Time Sea-Level Adjusted Pressure Absolute Pressure Temperature Relative Humidity Dew Point   
(mb) (inHg) (mb) (inHg) (C) (F) (%) (C) (F)
00:05 1018 30.06 847 25.01 -6 21.3 80 -8.8 16.1
00:10 1018 30.06 847 25.01 -6.1 20.9 82 -8.7 16.4
00:15 1018 30.06 847 25.01 -6.2 20.9 83 -8.5 16.6
00:20 1018 30.06 847 25.01 -5.9 21.3 81 -8.6 16.5
00:25 1018 30.06 847 25.01 -5.4 22.2 81 -8.1 17.3
00:30 1018 30.06 847 25.01 -5.5 22.1 83 -8 17.7
00:35 1018 30.06 847 25.01 -5.7 21.7 84 -8 17.6
00:40 1018 30.06 847 25.01 -5.8 21.5 85 -8 17.7
00:45 1018 30.06 847 25.01 -5.7 21.7 84 -8 17.5
00:50 1018 30.06 847 25.01 -5.6 21.8 83 -8.1 17.4
00:55 1017 30.03 847 25.01 -5.7 21.8 82 -8.2 17.2
01:00 1017 30.03 847 25.01 -5.9 21.4 83 -8.3 17.1
01:05 1017 30.03 847 25.01 -6.2 20.8 85 -8.4 16.9
01:10 1017 30.03 847 25.01 -6.5 20.3 85 -8.5 16.6
01:15 1017 30.03 847 25.01 -6.3 20.7 83 -8.7 16.4
01:20 1017 30.03 847 25.01 -5.9 21.4 82 -8.4 16.8
01:25 1017 30.03 847 25.01 -6 21.2 83 -8.5 16.7
01:30 1018 30.06 847 25.01 -6 21.1 83 -8.5 16.6
01:35 1018 30.06 847 25.01 -6.2 20.9 83 -8.6 16.5
01:40 1018 30.06 847 25.01 -6.6 20.2 84 -8.9 16
01:45 1018 30.06 847 25.01 -6.9 19.6 84 -9.2 15.5
01:50 1018 30.06 847 25.01 -7.1 19.2 85 -9.2 15.4
01:55 1018 30.06 847 25.01 -7.3 18.9 85 -9.4 15.1
02:00 1018 30.06 847 25.01 -7.2 19 84 -9.4 15
02:05 1018 30.06 847 25.01 -7.5 18.5 85 -9.6 14.7
02:10 1018 30.06 847 25.01 -8 17.7 87 -9.7 14.5
02:15 1018 30.06 847 25.01 -8 17.6 87 -9.8 14.4
02:20 1018 30.06 847 25.01 -7.9 17.8 87 -9.6 14.7
02:25 1018 30.06 847 25.01 -7.8 17.9 87 -9.6 14.7
02:30 1018 30.06 847 25.01 -7.9 17.8 87 -9.7 14.5
02:35 1018 30.06 847 25.01 -7.9 17.9 86 -9.7 14.5
02:40 1018 30.06 847 25.01 -7.6 18.4 86 -9.5 14.8
02:45 1018 30.06 847 25.01 -7.4 18.6 85 -9.5 14.9
02:50 1018 30.06 847 25.01 -7.3 18.8 84 -9.5 14.9
02:55 1018 30.06 847 25.01 -7.6 18.3 86 -9.6 14.7
03:00 1018 30.06 847 25.01 -7.6 18.2 85 -9.8 14.3
03:05 1018 30.06 847 25.01 -7.5 18.4 84 -9.8 14.4
03:10 1018 30.06 847 25.01 -7.6 18.4 85 -9.7 14.5
03:15 1018 30.06 847 25.01 -7.9 17.7 86 -9.9 14.1
03:20 1018 30.06 847 25.01 -8.2 17.2 86 -10.1 13.8
03:25 1018 30.06 847 25.01 -8.3 17.1 86 -10.2 13.6
03:30 1018 30.06 847 25.01 -8.3 17.1 86 -10.3 13.5
03:35 1018 30.06 847 25.01 -8.3 17 86 -10.2 13.6
03:40 1018 30.06 847 25.01 -8.3 17 86 -10.2 13.6
03:45 1018 30.06 847 25.01 -8.2 17.3 85 -10.2 13.6
03:50 1018 30.06 847 25.01 -7.9 17.9 84 -10.1 13.8
03:55 1018 30.06 847 25.01 -7.8 18.1 84 -10 13.9
04:00 1018 30.06 847 25.01 -7.7 18.2 84 -9.9 14.2
04:05 1018 30.06 847 25.01 -7.6 18.4 83 -9.9 14.1
04:10 1018 30.06 848 25.04 -8.2 17.2 84 -10.4 13.2
04:15 1018 30.06 848 25.04 -8.5 16.6 84 -10.7 12.7
04:20 1018 30.06 848 25.04 -8.3 17.1 84 -10.5 13.1
04:25 1018 30.06 848 25.04 -8.3 17.2 85 -10.4 13.3
04:30 1018 30.06 848 25.04 -8.2 17.3 85 -10.3 13.4
04:35 1018 30.06 848 25.04 -8 17.5 84 -10.2 13.6
04:40 1018 30.06 848 25.04 -7.8 17.9 84 -10.1 13.9
04:45 1018 30.06 848 25.04 -8 17.6 85 -10.2 13.7
04:50 1018 30.06 847 25.01 -8.2 17.3 85 -10.3 13.4
04:55 1018 30.06 848 25.04 -8.3 17.1 85 -10.4 13.3
05:00 1018 30.06 848 25.04 -8.3 17 84 -10.5 13
05:05 1018 30.06 848 25.04 -8.5 16.7 85 -10.6 12.9
05:10 1018 30.06 847 25.01 -8.6 16.6 85 -10.7 12.8
05:15 1018 30.06 847 25.01 -8.7 16.4 86 -10.7 12.7
05:20 1018 30.06 847 25.01 -8.7 16.3 86 -10.7 12.7
05:25 1018 30.06 847 25.01 -8.6 16.5 85 -10.7 12.7
05:30 1018 30.06 847 25.01 -8.8 16.2 84 -11 12.3
05:35 1018 30.06 847 25.01 -9 15.7 86 -11 12.2
05:40 1018 30.06 847 25.01 -9.1 15.6 85 -11.1 12
05:45 1018 30.06 847 25.01 -9 15.8 85 -11.1 12.1
05:50 1018 30.06 847 25.01 -9 15.8 86 -11 12.2
05:55 1018 30.06 847 25.01 -9 15.8 86 -11 12.2
06:00 1018 30.06 847 25.01 -8.9 16 86 -10.9 12.4
06:05 1018 30.06 847 25.01 -8.5 16.7 85 -10.6 12.8
06:10 1018 30.06 847 25.01 -8.5 16.7 84 -10.7 12.7
06:15 1018 30.06 847 25.01 -8.8 16.3 85 -10.9 12.5
06:20 1018 30.06 847 25.01 -8.9 16.1 86 -10.8 12.5
06:25 1018 30.06 847 25.01 -8.6 16.5 85 -10.7 12.8
06:30 1018 30.06 847 25.01 -8.3 17 84 -10.6 13
06:35 1018 30.06 848 25.04 -8.2 17.3 83 -10.5 13
06:40 1019 30.09 848 25.04 -8.2 17.3 83 -10.6 13
06:45 1018 30.06 848 25.04 -8.2 17.3 83 -10.5 13
06:50 1018 30.06 848 25.04 -8.1 17.4 83 -10.5 13.2
06:55 1018 30.06 847 25.01 -7.9 17.7 83 -10.4 13.3
07:00 1018 30.06 847 25.01 -8 17.7 84 -10.3 13.5
07:05 1018 30.06 848 25.04 -7.8 17.9 83 -10.2 13.7
07:10 1018 30.06 848 25.04 -7.7 18.1 83 -10.1 13.9
07:15 1018 30.06 847 25.01 -7.6 18.4 83 -10 14.1
07:20 1018 30.06 848 25.04 -7.4 18.6 82 -9.9 14.1
07:25 1018 30.06 848 25.04 -7.3 18.9 82 -9.9 14.2
07:30 1018 30.06 847 25.01 -7.1 19.3 82 -9.7 14.5
07:35 1018 30.06 848 25.04 -7 19.4 82 -9.7 14.6
07:40 1018 30.06 848 25.04 -7 19.3 81 -9.7 14.5
07:45 1018 30.06 847 25.01 -7 19.4 81 -9.7 14.6
07:50 1018 30.06 847 25.01 -7 19.3 81 -9.7 14.5
07:55 1018 30.06 848 25.04 -7 19.4 82 -9.6 14.7
08:00 1018 30.06 847 25.01 -6.9 19.5 82 -9.6 14.7
08:05 1018 30.06 847 25.01 -6.9 19.6 82 -9.6 14.8
08:10 1018 30.06 847 25.01 -6.8 19.7 81 -9.5 14.9
08:15 1018 30.06 847 25.01 -6.8 19.8 82 -9.4 15.1
08:20 1018 30.06 847 25.01 -6.6 20.1 81 -9.3 15.2
08:25 1018 30.06 847 25.01 -6.6 20.2 81 -9.3 15.3
08:30 1018 30.06 848 25.04 -6.5 20.3 82 -9.1 15.5
08:35 1018 30.06 848 25.04 -6.4 20.4 82 -9.1 15.6
08:40 1018 30.06 848 25.04 -6.3 20.6 81 -9.1 15.6
08:45 1018 30.06 848 25.04 -6.3 20.7 82 -8.9 15.9
08:50 1018 30.06 848 25.04 -6.2 20.8 82 -8.8 16.2
08:55 1018 30.06 848 25.04 -6.2 20.8 83 -8.7 16.3
09:00 1018 30.06 848 25.04 -6.3 20.7 81 -8.9 15.9
09:05 1018 30.06 848 25.04 -6.3 20.7 80 -9.2 15.5
09:10 1018 30.06 848 25.04 -6.3 20.7 81 -9.1 15.6
09:15 1018 30.06 848 25.04 -6.3 20.7 80 -9.1 15.6
09:20 1018 30.06 848 25.04 -6.1 21 80 -9.1 15.7
09:25 1018 30.06 848 25.04 -5.8 21.5 78 -9 15.7
09:30 1018 30.06 848 25.04 -5.3 22.4 76 -9 15.8
09:35 1018 30.06 848 25.04 -5.3 22.5 75 -9 15.8
09:40 1018 30.06 848 25.04 -5 23 74 -8.9 16
09:45 1018 30.06 848 25.04 -4.7 23.6 74 -8.6 16.6
09:50 1018 30.06 848 25.04 -3.9 25 70 -8.6 16.4
09:55 1018 30.06 848 25.04 -3.4 26 70 -8.1 17.5
10:00 1018 30.06 848 25.04 -3.5 25.6 68 -8.7 16.4
10:05 1019 30.09 848 25.04 -3 26.7 66 -8.4 16.8
10:10 1019 30.09 848 25.04 -2.8 26.9 66 -8.4 17
10:15 1018 30.06 848 25.04 -3.1 26.4 67 -8.3 17
10:20 1018 30.06 848 25.04 -2.7 27.2 65 -8.3 17.1
10:25 1018 30.06 848 25.04 -2.2 28.1 64 -8 17.6
10:30 1018 30.06 848 25.04 -1.4 29.4 60 -8.2 17.3
10:35 1018 30.06 848 25.04 -1.2 29.8 61 -7.7 18.1
10:40 1018 30.06 847 25.01 -1.5 29.3 60 -8.3 17.1
10:45 1018 30.06 847 25.01 -1.2 29.9 59 -8.1 17.4
10:50 1018 30.06 847 25.01 -0.9 30.4 56 -8.6 16.5
10:55 1018 30.06 847 25.01 -1 30.2 60 -7.8 18
11:00 1018 30.06 847 25.01 -1.1 30.1 57 -8.5 16.6
11:05 1018 30.06 847 25.01 -0.9 30.3 57 -8.5 16.8
11:10 1018 30.06 847 25.01 -1.3 29.7 57 -8.8 16.2
11:15 1018 30.06 847 25.01 -1.5 29.2 57 -8.9 16
11:20 1018 30.06 847 25.01 -1.6 29.1 57 -9.1 15.7
11:25 1018 30.06 847 25.01 -0.8 30.5 55 -8.9 16
11:30 1018 30.06 847 25.01 -0.4 31.3 53 -8.9 16
11:35 1018 30.06 847 25.01 -0 31.9 53 -8.6 16.5
11:40 1018 30.06 847 25.01 0.6 33 51 -8.5 16.7
11:45 1018 30.06 847 25.01 0.3 32.5 52 -8.4 16.9
11:50 1018 30.06 847 25.01 0.3 32.5 52 -8.5 16.7
11:55 1018 30.06 847 25.01 0.4 32.8 52 -8.3 17.1
12:00 1017 30.03 847 25.01 0.3 32.5 55 -7.8 18
12:05 1017 30.03 847 25.01 0.2 32.4 53 -8.3 17
12:10 1017 30.03 846 24.98 0.3 32.5 55 -7.7 18.1
12:15 1017 30.03 846 24.98 0.5 33 53 -7.9 17.7
12:20 1017 30.03 846 24.98 1 33.9 50 -8.2 17.3
12:25 1017 30.03 846 24.98 1.2 34.1 53 -7.4 18.6
12:30 1017 30.03 846 24.98 1.1 34 53 -7.5 18.5
12:35 1017 30.03 846 24.98 1.2 34.2 50 -8 17.6
12:40 1017 30.03 846 24.98 1.4 34.6 50 -7.9 17.8
12:45 1017 30.03 846 24.98 0.7 33.3 53 -7.7 18.1
12:50 1017 30.03 846 24.98 0.2 32.3 54 -8.1 17.3
12:55 1017 30.03 846 24.98 1.3 34.3 50 -8.1 17.4
13:00 1017 30.03 846 24.98 1.6 34.9 52 -7.1 19.2
13:05 1017 30.03 846 24.98 0.8 33.5 52 -7.9 17.8
13:10 1016 30 846 24.98 1.2 34.2 49 -8.3 17.1
13:15 1016 30 846 24.98 1.8 35.3 46 -8.5 16.7
13:20 1016 30 846 24.98 2.2 36 46 -8.2 17.3
13:25 1016 30 846 24.98 2 35.7 44 -9 15.8
13:30 1016 30 846 24.98 1.5 34.7 45 -9.1 15.6
13:35 1016 30 846 24.98 1.8 35.2 41 -10.2 13.6
13:40 1016 30 845 24.95 1.6 34.9 44 -9.3 15.2
13:45 1016 30 845 24.95 1.2 34.2 45 -9.5 14.8
13:50 1016 30 845 24.95 1.3 34.3 43 -9.9 14.1
13:55 1016 30 845 24.95 1.4 34.4 45 -9.4 15
14:00 1016 30 845 24.95 1.7 35.1 46 -8.8 16.2
14:05 1016 30 845 24.95 2.2 35.9 44 -8.8 16.2
14:10 1016 30 845 24.95 2.2 35.9 45 -8.4 16.8
14:15 1016 30 845 24.95 1.8 35.3 44 -9.1 15.7
14:20 1016 30 845 24.95 2 35.7 44 -9.1 15.7
14:25 1015 29.97 845 24.95 2.6 36.6 43 -8.8 16.1
14:30 1015 29.97 845 24.95 2.8 37 43 -8.5 16.7
14:35 1015 29.97 844 24.92 1.9 35.3 47 -8.4 16.9
14:40 1015 29.97 844 24.92 2.6 36.6 46 -8 17.6
14:45 1015 29.97 844 24.92 2.6 36.7 48 -7.4 18.7
14:50 1015 29.97 844 24.92 2.9 37.2 44 -8.2 17.3
14:55 1015 29.97 844 24.92 3.2 37.8 45 -7.5 18.5
15:00 1015 29.97 844 24.92 2.9 37.3 47 -7.3 18.9
15:05 1015 29.97 844 24.92 1.9 35.4 49 -7.7 18.1
15:10 1015 29.97 844 24.92 1.6 34.9 49 -8 17.6
15:15 1015 29.97 844 24.92 2.4 36.2 45 -8.4 16.9
15:20 1015 29.97 844 24.92 2.9 37.3 45 -8 17.6
15:25 1015 29.97 844 24.92 1.8 35.3 49 -7.7 18.1
15:30 1015 29.97 844 24.92 1.2 34.1 51 -7.8 17.9
15:35 1015 29.97 844 24.92 1.7 35 48 -8.1 17.5
15:40 1015 29.97 844 24.92 2.4 36.4 44 -8.5 16.7
15:45 1015 29.97 844 24.92 3.2 37.8 44 -7.8 18
15:50 1015 29.97 844 24.92 3 37.4 44 -7.9 17.7
15:55 1015 29.97 844 24.92 3 37.4 42 -8.6 16.5
16:00 1015 29.97 844 24.92 2.3 36.2 46 -8.2 17.3
16:05 1015 29.97 844 24.92 2.9 37.3 42 -8.6 16.5
16:10 1014 29.94 844 24.92 2 35.7 48 -8 17.7
16:15 1014 29.94 844 24.92 1.3 34.4 47 -8.7 16.4
16:20 1014 29.94 843 24.89 1.5 34.7 48 -8.4 16.9
16:25 1014 29.94 843 24.89 1.7 35 47 -8.5 16.7
16:30 1014 29.94 843 24.89 1.4 34.5 49 -8.2 17.2
16:35 1014 29.94 843 24.89 1.2 34.1 50 -8.2 17.2
16:40 1014 29.94 843 24.89 1.1 33.9 50 -8.3 17
16:45 1014 29.94 843 24.89 0.7 33.2 50 -8.5 16.7
16:50 1014 29.94 843 24.89 1.2 34.2 49 -8.4 16.8
16:55 1014 29.94 843 24.89 0.9 33.6 50 -8.3 17
17:00 1014 29.94 843 24.89 0.6 33.1 51 -8.3 17
17:05 1013 29.91 843 24.89 0.5 33 53 -8.1 17.5
17:10 1013 29.91 843 24.89 0.6 33.2 52 -8.1 17.4
17:15 1013 29.91 843 24.89 0.5 33 52 -8.3 17.1
17:20 1014 29.94 843 24.89 0.3 32.6 53 -8.1 17.5
17:25 1014 29.94 843 24.89 0.2 32.4 54 -8 17.6
17:30 1014 29.94 843 24.89 -0.2 31.7 56 -7.9 17.9
17:35 1014 29.94 843 24.89 -0.4 31.3 57 -7.8 18
17:40 1014 29.94 843 24.89 -0.2 31.7 55 -8 17.5
17:45 1014 29.94 843 24.89 -0.3 31.5 58 -7.7 18.2
17:50 1014 29.94 843 24.89 -0.1 31.8 57 -7.6 18.4
17:55 1014 29.94 843 24.89 -0.3 31.4 57 -7.7 18.1
18:00 1014 29.94 843 24.89 -0.4 31.2 56 -8.1 17.4
18:05 1013 29.91 843 24.89 -0.6 31 58 -7.8 17.9
18:10 1013 29.91 843 24.89 -0.9 30.4 60 -7.8 18
18:15 1013 29.91 843 24.89 -1 30.2 61 -7.6 18.3
18:20 1013 29.91 843 24.89 -1 30.2 60 -7.9 17.8
18:25 1013 29.91 843 24.89 -1.2 29.9 63 -7.4 18.7
18:30 1013 29.91 842 24.86 -1.2 29.9 61 -7.7 18.1
18:35 1013 29.91 842 24.86 -1.1 30 61 -7.7 18.2
18:40 1013 29.91 842 24.86 -1 30.2 61 -7.5 18.5
18:45 1013 29.91 842 24.86 -0.8 30.5 60 -7.7 18.1
18:50 1013 29.91 842 24.86 -0.6 30.9 59 -7.6 18.2
18:55 1013 29.91 842 24.86 -0.4 31.2 60 -7.3 18.9
19:00 1013 29.91 842 24.86 -0.5 31.1 60 -7.2 19
19:05 1013 29.91 842 24.86 -0.4 31.2 61 -7.2 19.1
19:10 1013 29.91 842 24.86 -0.6 30.9 62 -6.9 19.5
19:15 1013 29.91 842 24.86 -0.7 30.8 62 -7.2 19.1
19:20 1013 29.91 842 24.86 -0.9 30.4 61 -7.5 18.5
19:25 1013 29.91 842 24.86 -1 30.3 62 -7.4 18.7
19:30 1013 29.91 842 24.86 -0.6 31 61 -7.2 19.1
19:35 1013 29.91 842 24.86 -0.7 30.8 62 -7.1 19.1
19:40 1013 29.91 842 24.86 -1.3 29.6 66 -6.9 19.5
19:45 1013 29.91 842 24.86 -1.5 29.3 65 -7.2 19.1
19:50 1012 29.88 842 24.86 -1.5 29.2 65 -7.3 18.9
19:55 1012 29.88 841 24.83 -1.3 29.6 65 -7 19.4
20:00 1012 29.88 841 24.83 -1.3 29.6 67 -6.7 19.9
20:05 1012 29.88 841 24.83 -1.4 29.4 69 -6.4 20.5
20:10 1012 29.88 841 24.83 -1.4 29.4 71 -6 21.3
20:15 1012 29.88 841 24.83 -1.4 29.5 70 -6.2 20.9
20:20 1012 29.88 842 24.86 -1.9 28.5 72 -6.3 20.7
20:25 1012 29.88 841 24.83 -2.2 28 73 -6.5 20.3
20:30 1012 29.88 841 24.83 -2.3 27.8 73 -6.5 20.4
20:35 1012 29.88 841 24.83 -2.4 27.7 73 -6.5 20.3
20:40 1012 29.88 841 24.83 -2.3 27.8 73 -6.6 20.2
20:45 1012 29.88 841 24.83 -2.1 28.2 69 -7 19.3
20:50 1012 29.88 841 24.83 -1.5 29.4 66 -7 19.3
20:55 1012 29.88 841 24.83 -1.5 29.2 69 -6.6 20.2
21:00 1012 29.88 841 24.83 -1.7 28.9 68 -6.9 19.6
21:05 1012 29.88 841 24.83 -1.7 29 66 -7.2 19
21:10 1012 29.88 841 24.83 -1.5 29.2 66 -7 19.4
21:15 1012 29.88 841 24.83 -1.1 29.9 67 -6.5 20.3
21:20 1012 29.88 841 24.83 -1 30.1 69 -6.1 21
21:25 1012 29.88 841 24.83 -1.2 29.9 70 -6 21.3
21:30 1012 29.88 841 24.83 -1 30.2 63 -7.2 19
21:35 1012 29.88 841 24.83 -0.3 31.4 66 -6 21.3
21:40 1012 29.88 841 24.83 -0.5 31.1 66 -6 21.2
21:45 1012 29.88 841 24.83 -0.4 31.3 60 -7.2 19.1
21:50 1012 29.88 842 24.86 -0.2 31.7 66 -5.8 21.5
21:55 1012 29.88 842 24.86 -0.1 31.8 62 -6.5 20.2
22:00 1012 29.88 841 24.83 0.3 32.6 61 -6.3 20.7
22:05 1012 29.88 841 24.83 0.5 32.9 62 -6 21.3
22:10 1012 29.88 841 24.83 0.7 33.3 63 -5.6 21.9
22:15 1012 29.88 841 24.83 0.7 33.2 65 -5.2 22.6
22:20 1012 29.88 841 24.83 0.4 32.6 71 -4.3 24.2
22:25 1012 29.88 841 24.83 0 32.1 75 -3.8 25.1
22:30 1012 29.88 841 24.83 -0.1 31.8 78 -3.5 25.7
22:35 1012 29.88 842 24.86 -0.3 31.5 82 -3 26.5
22:40 1012 29.88 841 24.83 -0.5 31.2 84 -2.8 26.9
22:45 1012 29.88 841 24.83 -0.8 30.5 87 -2.7 27.1
22:50 1012 29.88 841 24.83 -1.3 29.7 90 -2.7 27.2
22:55 1012 29.88 841 24.83 -1.6 29 92 -2.8 27
23:00 1012 29.88 841 24.83 -1.7 28.9 93 -2.7 27.1
23:05 1012 29.88 841 24.83 -1.7 29 93 -2.7 27.2
23:10 1012 29.88 841 24.83 -1.7 28.9 94 -2.6 27.3
23:15 1012 29.88 841 24.83 -1.7 29 94 -2.5 27.5
23:20 1012 29.88 841 24.83 -1.5 29.2 95 -2.3 27.8
23:25 1012 29.88 841 24.83 -1.4 29.5 94 -2.3 27.8
23:30 1012 29.88 841 24.83 -1.4 29.4 93 -2.4 27.7
23:35 1012 29.88 841 24.83 -1.6 29.2 95 -2.3 27.9
23:40 1012 29.88 841 24.83 -1.4 29.5 95 -2.1 28.2
23:45 1012 29.88 841 24.83 -1.2 29.8 94 -2 28.3
23:50 1012 29.88 841 24.83 -1 30.1 94 -1.9 28.6
23:55 1012 29.88 841 24.83 -1 30.2 94 -1.9 28.6
24:00 1012 29.88 841 24.83 -1 30.3 94 -1.8 28.7